sensor_id;sensor_type;location;lat;lon;timestamp;P1;durP1;ratioP1;P2;durP2;ratioP2
39020;SDS011;25188;51.958;5.842;2024-03-02T00:00:14;1.83;;;0.93;;
39020;SDS011;25188;51.958;5.842;2024-03-02T00:02:40;2.73;;;0.90;;
39020;SDS011;25188;51.958;5.842;2024-03-02T00:05:06;1.93;;;0.70;;
39020;SDS011;25188;51.958;5.842;2024-03-02T00:07:32;2.37;;;0.90;;
39020;SDS011;25188;51.958;5.842;2024-03-02T00:09:59;2.83;;;0.70;;
39020;SDS011;25188;51.958;5.842;2024-03-02T00:12:25;5.03;;;0.87;;
39020;SDS011;25188;51.958;5.842;2024-03-02T00:14:52;2.87;;;0.87;;
39020;SDS011;25188;51.958;5.842;2024-03-02T00:17:21;3.57;;;0.90;;
39020;SDS011;25188;51.958;5.842;2024-03-02T00:19:53;2.27;;;0.80;;
39020;SDS011;25188;51.958;5.842;2024-03-02T00:22:21;2.20;;;0.80;;
39020;SDS011;25188;51.958;5.842;2024-03-02T00:24:49;4.17;;;0.90;;
39020;SDS011;25188;51.958;5.842;2024-03-02T00:27:15;3.13;;;1.23;;
39020;SDS011;25188;51.958;5.842;2024-03-02T00:29:43;3.20;;;0.90;;
39020;SDS011;25188;51.958;5.842;2024-03-02T00:32:12;2.97;;;0.80;;
39020;SDS011;25188;51.958;5.842;2024-03-02T00:34:38;10.07;;;1.10;;
39020;SDS011;25188;51.958;5.842;2024-03-02T00:37:04;2.43;;;0.70;;
39020;SDS011;25188;51.958;5.842;2024-03-02T00:39:31;3.07;;;0.83;;
39020;SDS011;25188;51.958;5.842;2024-03-02T00:41:57;2.60;;;1.00;;
39020;SDS011;25188;51.958;5.842;2024-03-02T00:44:23;1.53;;;0.60;;
39020;SDS011;25188;51.958;5.842;2024-03-02T00:46:51;3.13;;;0.90;;
39020;SDS011;25188;51.958;5.842;2024-03-02T00:49:18;3.57;;;0.67;;
39020;SDS011;25188;51.958;5.842;2024-03-02T00:51:51;3.43;;;0.60;;
39020;SDS011;25188;51.958;5.842;2024-03-02T00:54:22;2.70;;;0.70;;
39020;SDS011;25188;51.958;5.842;2024-03-02T00:56:49;2.23;;;0.67;;
39020;SDS011;25188;51.958;5.842;2024-03-02T00:59:16;3.43;;;0.80;;
39020;SDS011;25188;51.958;5.842;2024-03-02T01:01:42;3.87;;;1.13;;
39020;SDS011;25188;51.958;5.842;2024-03-02T01:04:08;3.10;;;0.70;;
39020;SDS011;25188;51.958;5.842;2024-03-02T01:06:34;4.87;;;1.67;;
39020;SDS011;25188;51.958;5.842;2024-03-02T01:09:01;4.07;;;0.77;;
39020;SDS011;25188;51.958;5.842;2024-03-02T01:11:27;2.20;;;0.60;;
39020;SDS011;25188;51.958;5.842;2024-03-02T01:13:53;4.77;;;0.90;;
39020;SDS011;25188;51.958;5.842;2024-03-02T01:16:19;2.20;;;0.70;;
39020;SDS011;25188;51.958;5.842;2024-03-02T01:18:45;2.87;;;0.60;;
39020;SDS011;25188;51.958;5.842;2024-03-02T01:21:10;4.30;;;0.73;;
39020;SDS011;25188;51.958;5.842;2024-03-02T01:23:36;2.00;;;0.47;;
39020;SDS011;25188;51.958;5.842;2024-03-02T01:26:02;2.87;;;0.40;;
39020;SDS011;25188;51.958;5.842;2024-03-02T01:28:28;1.00;;;0.40;;
39020;SDS011;25188;51.958;5.842;2024-03-02T01:30:54;0.97;;;0.27;;
39020;SDS011;25188;51.958;5.842;2024-03-02T01:33:20;1.07;;;0.20;;
39020;SDS011;25188;51.958;5.842;2024-03-02T01:35:46;0.53;;;0.20;;
39020;SDS011;25188;51.958;5.842;2024-03-02T01:38:12;0.30;;;0.20;;
39020;SDS011;25188;51.958;5.842;2024-03-02T01:40:39;1.40;;;0.33;;
39020;SDS011;25188;51.958;5.842;2024-03-02T01:43:05;0.60;;;0.20;;
39020;SDS011;25188;51.958;5.842;2024-03-02T01:45:31;0.40;;;0.20;;
39020;SDS011;25188;51.958;5.842;2024-03-02T01:47:57;0.97;;;0.20;;
39020;SDS011;25188;51.958;5.842;2024-03-02T01:50:29;0.70;;;0.20;;
39020;SDS011;25188;51.958;5.842;2024-03-02T01:52:57;0.50;;;0.17;;
39020;SDS011;25188;51.958;5.842;2024-03-02T01:55:24;1.80;;;0.30;;
39020;SDS011;25188;51.958;5.842;2024-03-02T01:57:50;0.50;;;0.20;;
39020;SDS011;25188;51.958;5.842;2024-03-02T02:00:17;0.87;;;0.30;;
39020;SDS011;25188;51.958;5.842;2024-03-02T02:02:44;1.20;;;0.27;;
39020;SDS011;25188;51.958;5.842;2024-03-02T02:05:11;0.53;;;0.20;;
39020;SDS011;25188;51.958;5.842;2024-03-02T02:07:37;0.83;;;0.20;;
39020;SDS011;25188;51.958;5.842;2024-03-02T02:10:03;0.93;;;0.10;;
39020;SDS011;25188;51.958;5.842;2024-03-02T02:12:29;0.30;;;0.20;;
39020;SDS011;25188;51.958;5.842;2024-03-02T02:14:55;0.87;;;0.30;;
39020;SDS011;25188;51.958;5.842;2024-03-02T02:17:20;0.50;;;0.20;;
39020;SDS011;25188;51.958;5.842;2024-03-02T02:19:46;0.70;;;0.20;;
39020;SDS011;25188;51.958;5.842;2024-03-02T02:22:12;1.17;;;0.20;;
39020;SDS011;25188;51.958;5.842;2024-03-02T02:24:41;0.30;;;0.20;;
39020;SDS011;25188;51.958;5.842;2024-03-02T02:27:07;0.40;;;0.10;;
39020;SDS011;25188;51.958;5.842;2024-03-02T02:29:34;0.37;;;0.20;;
39020;SDS011;25188;51.958;5.842;2024-03-02T02:32:00;0.83;;;0.20;;
39020;SDS011;25188;51.958;5.842;2024-03-02T02:34:25;0.23;;;0.20;;
39020;SDS011;25188;51.958;5.842;2024-03-02T02:36:51;2.20;;;0.20;;
39020;SDS011;25188;51.958;5.842;2024-03-02T02:39:18;0.30;;;0.10;;
39020;SDS011;25188;51.958;5.842;2024-03-02T02:41:47;0.30;;;0.20;;
39020;SDS011;25188;51.958;5.842;2024-03-02T02:44:14;0.43;;;0.17;;
39020;SDS011;25188;51.958;5.842;2024-03-02T02:46:40;0.20;;;0.10;;
39020;SDS011;25188;51.958;5.842;2024-03-02T02:49:06;0.30;;;0.20;;
39020;SDS011;25188;51.958;5.842;2024-03-02T02:51:32;0.37;;;0.20;;
39020;SDS011;25188;51.958;5.842;2024-03-02T02:53:58;1.20;;;0.27;;
39020;SDS011;25188;51.958;5.842;2024-03-02T02:56:24;0.47;;;0.20;;
39020;SDS011;25188;51.958;5.842;2024-03-02T02:58:49;0.50;;;0.20;;
39020;SDS011;25188;51.958;5.842;2024-03-02T03:01:15;1.37;;;0.20;;
39020;SDS011;25188;51.958;5.842;2024-03-02T03:03:43;0.97;;;0.17;;
39020;SDS011;25188;51.958;5.842;2024-03-02T03:06:09;0.60;;;0.20;;
39020;SDS011;25188;51.958;5.842;2024-03-02T03:08:35;0.60;;;0.30;;
39020;SDS011;25188;51.958;5.842;2024-03-02T03:11:01;0.40;;;0.10;;
39020;SDS011;25188;51.958;5.842;2024-03-02T03:13:27;1.37;;;0.20;;
39020;SDS011;25188;51.958;5.842;2024-03-02T03:15:52;2.83;;;0.30;;
39020;SDS011;25188;51.958;5.842;2024-03-02T03:18:18;0.57;;;0.20;;
39020;SDS011;25188;51.958;5.842;2024-03-02T03:20:44;0.20;;;0.13;;
39020;SDS011;25188;51.958;5.842;2024-03-02T03:23:09;0.30;;;0.10;;
39020;SDS011;25188;51.958;5.842;2024-03-02T03:25:40;0.57;;;0.20;;
39020;SDS011;25188;51.958;5.842;2024-03-02T03:28:06;0.40;;;0.20;;
39020;SDS011;25188;51.958;5.842;2024-03-02T03:30:34;0.30;;;0.10;;
39020;SDS011;25188;51.958;5.842;2024-03-02T03:33:03;3.03;;;0.30;;
39020;SDS011;25188;51.958;5.842;2024-03-02T03:35:31;1.10;;;0.20;;
39020;SDS011;25188;51.958;5.842;2024-03-02T03:37:57;0.40;;;0.10;;
39020;SDS011;25188;51.958;5.842;2024-03-02T03:40:24;0.50;;;0.20;;
39020;SDS011;25188;51.958;5.842;2024-03-02T03:42:50;0.77;;;0.20;;
39020;SDS011;25188;51.958;5.842;2024-03-02T03:45:16;0.50;;;0.20;;
39020;SDS011;25188;51.958;5.842;2024-03-02T03:47:41;0.50;;;0.20;;
39020;SDS011;25188;51.958;5.842;2024-03-02T03:50:07;0.47;;;0.20;;
39020;SDS011;25188;51.958;5.842;2024-03-02T03:52:33;0.63;;;0.20;;
39020;SDS011;25188;51.958;5.842;2024-03-02T03:54:59;0.90;;;0.20;;
39020;SDS011;25188;51.958;5.842;2024-03-02T03:57:25;0.30;;;0.10;;
39020;SDS011;25188;51.958;5.842;2024-03-02T03:59:52;1.10;;;0.20;;
39020;SDS011;25188;51.958;5.842;2024-03-02T04:02:18;0.30;;;0.10;;
39020;SDS011;25188;51.958;5.842;2024-03-02T04:04:44;0.60;;;0.20;;
39020;SDS011;25188;51.958;5.842;2024-03-02T04:07:10;0.60;;;0.20;;
39020;SDS011;25188;51.958;5.842;2024-03-02T04:09:36;0.87;;;0.20;;
39020;SDS011;25188;51.958;5.842;2024-03-02T04:12:01;1.57;;;0.40;;
39020;SDS011;25188;51.958;5.842;2024-03-02T04:14:27;0.30;;;0.20;;
39020;SDS011;25188;51.958;5.842;2024-03-02T04:16:53;0.60;;;0.20;;
39020;SDS011;25188;51.958;5.842;2024-03-02T04:19:18;0.73;;;0.27;;
39020;SDS011;25188;51.958;5.842;2024-03-02T04:21:44;0.50;;;0.20;;
39020;SDS011;25188;51.958;5.842;2024-03-02T04:24:10;0.40;;;0.20;;
39020;SDS011;25188;51.958;5.842;2024-03-02T04:26:35;0.83;;;0.30;;
39020;SDS011;25188;51.958;5.842;2024-03-02T04:29:01;0.40;;;0.20;;
39020;SDS011;25188;51.958;5.842;2024-03-02T04:31:27;1.60;;;0.40;;
39020;SDS011;25188;51.958;5.842;2024-03-02T04:33:52;1.13;;;0.30;;
39020;SDS011;25188;51.958;5.842;2024-03-02T04:36:19;0.50;;;0.20;;
39020;SDS011;25188;51.958;5.842;2024-03-02T04:38:44;1.40;;;0.20;;
39020;SDS011;25188;51.958;5.842;2024-03-02T04:41:10;0.70;;;0.20;;
39020;SDS011;25188;51.958;5.842;2024-03-02T04:43:36;0.53;;;0.27;;
39020;SDS011;25188;51.958;5.842;2024-03-02T04:46:01;0.27;;;0.20;;
39020;SDS011;25188;51.958;5.842;2024-03-02T04:48:27;0.47;;;0.20;;
39020;SDS011;25188;51.958;5.842;2024-03-02T04:50:53;0.23;;;0.20;;
39020;SDS011;25188;51.958;5.842;2024-03-02T04:53:19;0.83;;;0.23;;
39020;SDS011;25188;51.958;5.842;2024-03-02T04:55:44;0.50;;;0.20;;
39020;SDS011;25188;51.958;5.842;2024-03-02T04:58:23;0.60;;;0.30;;
39020;SDS011;25188;51.958;5.842;2024-03-02T05:00:48;1.50;;;0.30;;
39020;SDS011;25188;51.958;5.842;2024-03-02T05:03:14;2.90;;;0.37;;
39020;SDS011;25188;51.958;5.842;2024-03-02T05:05:40;3.27;;;0.30;;
39020;SDS011;25188;51.958;5.842;2024-03-02T05:08:05;0.80;;;0.20;;
39020;SDS011;25188;51.958;5.842;2024-03-02T05:10:31;0.30;;;0.20;;
39020;SDS011;25188;51.958;5.842;2024-03-02T05:12:57;0.70;;;0.20;;
39020;SDS011;25188;51.958;5.842;2024-03-02T05:15:24;0.50;;;0.20;;
39020;SDS011;25188;51.958;5.842;2024-03-02T05:17:50;0.57;;;0.23;;
39020;SDS011;25188;51.958;5.842;2024-03-02T05:20:16;0.40;;;0.20;;
39020;SDS011;25188;51.958;5.842;2024-03-02T05:22:42;0.67;;;0.20;;
39020;SDS011;25188;51.958;5.842;2024-03-02T05:25:08;1.30;;;0.23;;
39020;SDS011;25188;51.958;5.842;2024-03-02T05:27:37;1.00;;;0.20;;
39020;SDS011;25188;51.958;5.842;2024-03-02T05:30:02;0.67;;;0.30;;
39020;SDS011;25188;51.958;5.842;2024-03-02T05:32:31;0.50;;;0.20;;
39020;SDS011;25188;51.958;5.842;2024-03-02T05:34:57;1.93;;;0.20;;
39020;SDS011;25188;51.958;5.842;2024-03-02T05:37:22;1.63;;;0.30;;
39020;SDS011;25188;51.958;5.842;2024-03-02T05:39:48;0.77;;;0.30;;
39020;SDS011;25188;51.958;5.842;2024-03-02T05:42:14;1.60;;;0.40;;
39020;SDS011;25188;51.958;5.842;2024-03-02T05:44:41;0.60;;;0.20;;
39020;SDS011;25188;51.958;5.842;2024-03-02T05:47:07;0.90;;;0.30;;
39020;SDS011;25188;51.958;5.842;2024-03-02T05:49:35;2.37;;;0.30;;
39020;SDS011;25188;51.958;5.842;2024-03-02T05:52:01;2.00;;;0.40;;
39020;SDS011;25188;51.958;5.842;2024-03-02T05:54:28;2.83;;;0.30;;
39020;SDS011;25188;51.958;5.842;2024-03-02T05:56:53;0.60;;;0.20;;
39020;SDS011;25188;51.958;5.842;2024-03-02T05:59:19;2.50;;;0.30;;
39020;SDS011;25188;51.958;5.842;2024-03-02T06:01:45;0.67;;;0.30;;
39020;SDS011;25188;51.958;5.842;2024-03-02T06:04:12;1.53;;;0.30;;
39020;SDS011;25188;51.958;5.842;2024-03-02T06:06:38;2.27;;;0.40;;
39020;SDS011;25188;51.958;5.842;2024-03-02T06:09:04;1.33;;;0.20;;
39020;SDS011;25188;51.958;5.842;2024-03-02T06:11:33;0.57;;;0.20;;
39020;SDS011;25188;51.958;5.842;2024-03-02T06:13:59;1.20;;;0.30;;
39020;SDS011;25188;51.958;5.842;2024-03-02T06:16:25;0.40;;;0.20;;
39020;SDS011;25188;51.958;5.842;2024-03-02T06:18:50;1.40;;;0.20;;
39020;SDS011;25188;51.958;5.842;2024-03-02T06:21:16;0.50;;;0.20;;
39020;SDS011;25188;51.958;5.842;2024-03-02T06:23:43;1.50;;;0.30;;
39020;SDS011;25188;51.958;5.842;2024-03-02T06:26:09;1.10;;;0.20;;
39020;SDS011;25188;51.958;5.842;2024-03-02T06:28:34;2.33;;;0.27;;
39020;SDS011;25188;51.958;5.842;2024-03-02T06:31:01;0.57;;;0.20;;
39020;SDS011;25188;51.958;5.842;2024-03-02T06:33:27;1.70;;;0.23;;
39020;SDS011;25188;51.958;5.842;2024-03-02T06:35:53;1.33;;;0.30;;
39020;SDS011;25188;51.958;5.842;2024-03-02T06:38:19;2.70;;;0.30;;
39020;SDS011;25188;51.958;5.842;2024-03-02T06:40:45;2.57;;;0.40;;
39020;SDS011;25188;51.958;5.842;2024-03-02T06:43:10;1.07;;;0.30;;
39020;SDS011;25188;51.958;5.842;2024-03-02T06:45:36;0.93;;;0.30;;
39020;SDS011;25188;51.958;5.842;2024-03-02T06:48:02;0.40;;;0.30;;
39020;SDS011;25188;51.958;5.842;2024-03-02T06:50:28;0.47;;;0.20;;
39020;SDS011;25188;51.958;5.842;2024-03-02T06:52:53;2.93;;;0.20;;
39020;SDS011;25188;51.958;5.842;2024-03-02T06:55:21;1.27;;;0.30;;
39020;SDS011;25188;51.958;5.842;2024-03-02T06:57:47;1.33;;;0.27;;
39020;SDS011;25188;51.958;5.842;2024-03-02T07:00:13;1.90;;;0.30;;
39020;SDS011;25188;51.958;5.842;2024-03-02T07:02:39;1.23;;;0.30;;
39020;SDS011;25188;51.958;5.842;2024-03-02T07:05:07;0.53;;;0.23;;
39020;SDS011;25188;51.958;5.842;2024-03-02T07:07:33;0.77;;;0.33;;
39020;SDS011;25188;51.958;5.842;2024-03-02T07:10:00;0.80;;;0.30;;
39020;SDS011;25188;51.958;5.842;2024-03-02T07:12:26;0.97;;;0.37;;
39020;SDS011;25188;51.958;5.842;2024-03-02T07:14:52;1.53;;;0.37;;
39020;SDS011;25188;51.958;5.842;2024-03-02T07:17:30;1.70;;;0.40;;
39020;SDS011;25188;51.958;5.842;2024-03-02T07:19:56;1.73;;;0.30;;
39020;SDS011;25188;51.958;5.842;2024-03-02T07:22:22;0.40;;;0.20;;
39020;SDS011;25188;51.958;5.842;2024-03-02T07:24:48;0.90;;;0.30;;
39020;SDS011;25188;51.958;5.842;2024-03-02T07:27:14;2.17;;;0.40;;
39020;SDS011;25188;51.958;5.842;2024-03-02T07:29:41;2.00;;;0.40;;
39020;SDS011;25188;51.958;5.842;2024-03-02T07:32:07;2.67;;;0.33;;
39020;SDS011;25188;51.958;5.842;2024-03-02T07:34:33;2.53;;;0.30;;
39020;SDS011;25188;51.958;5.842;2024-03-02T07:36:59;0.40;;;0.30;;
39020;SDS011;25188;51.958;5.842;2024-03-02T07:39:25;2.53;;;0.30;;
39020;SDS011;25188;51.958;5.842;2024-03-02T07:41:51;2.53;;;0.47;;
39020;SDS011;25188;51.958;5.842;2024-03-02T07:44:17;2.00;;;0.40;;
39020;SDS011;25188;51.958;5.842;2024-03-02T07:46:44;0.87;;;0.33;;
39020;SDS011;25188;51.958;5.842;2024-03-02T07:49:16;0.60;;;0.30;;
39020;SDS011;25188;51.958;5.842;2024-03-02T07:51:45;0.97;;;0.23;;
39020;SDS011;25188;51.958;5.842;2024-03-02T07:54:11;2.13;;;0.43;;
39020;SDS011;25188;51.958;5.842;2024-03-02T07:56:37;0.60;;;0.33;;
39020;SDS011;25188;51.958;5.842;2024-03-02T07:59:03;0.67;;;0.30;;
39020;SDS011;25188;51.958;5.842;2024-03-02T08:01:29;1.57;;;0.40;;
39020;SDS011;25188;51.958;5.842;2024-03-02T08:03:58;1.00;;;0.30;;
39020;SDS011;25188;51.958;5.842;2024-03-02T08:06:28;1.20;;;0.30;;
39020;SDS011;25188;51.958;5.842;2024-03-02T08:08:58;2.63;;;0.30;;
39020;SDS011;25188;51.958;5.842;2024-03-02T08:11:24;4.17;;;0.60;;
39020;SDS011;25188;51.958;5.842;2024-03-02T08:13:52;3.50;;;0.57;;
39020;SDS011;25188;51.958;5.842;2024-03-02T08:16:20;4.37;;;0.50;;
39020;SDS011;25188;51.958;5.842;2024-03-02T08:18:49;3.23;;;0.30;;
39020;SDS011;25188;51.958;5.842;2024-03-02T08:21:15;0.77;;;0.30;;
39020;SDS011;25188;51.958;5.842;2024-03-02T08:23:41;4.90;;;0.40;;
39020;SDS011;25188;51.958;5.842;2024-03-02T08:26:08;3.03;;;0.30;;
39020;SDS011;25188;51.958;5.842;2024-03-02T08:28:34;3.30;;;0.43;;
39020;SDS011;25188;51.958;5.842;2024-03-02T08:30:59;1.47;;;0.30;;
39020;SDS011;25188;51.958;5.842;2024-03-02T08:33:25;1.30;;;0.40;;
39020;SDS011;25188;51.958;5.842;2024-03-02T08:35:51;2.70;;;0.50;;
39020;SDS011;25188;51.958;5.842;2024-03-02T08:38:17;1.03;;;0.30;;
39020;SDS011;25188;51.958;5.842;2024-03-02T08:40:43;1.47;;;0.30;;
39020;SDS011;25188;51.958;5.842;2024-03-02T08:43:09;2.60;;;0.40;;
39020;SDS011;25188;51.958;5.842;2024-03-02T08:45:36;6.90;;;0.50;;
39020;SDS011;25188;51.958;5.842;2024-03-02T08:48:04;2.63;;;0.50;;
39020;SDS011;25188;51.958;5.842;2024-03-02T08:50:32;2.27;;;0.50;;
39020;SDS011;25188;51.958;5.842;2024-03-02T08:52:57;1.40;;;0.37;;
39020;SDS011;25188;51.958;5.842;2024-03-02T08:55:23;1.17;;;0.33;;
39020;SDS011;25188;51.958;5.842;2024-03-02T08:57:49;2.10;;;0.47;;
39020;SDS011;25188;51.958;5.842;2024-03-02T09:00:15;1.93;;;0.40;;
39020;SDS011;25188;51.958;5.842;2024-03-02T09:02:43;1.90;;;0.33;;
39020;SDS011;25188;51.958;5.842;2024-03-02T09:05:09;4.30;;;0.43;;
39020;SDS011;25188;51.958;5.842;2024-03-02T09:07:35;4.37;;;0.60;;
39020;SDS011;25188;51.958;5.842;2024-03-02T09:10:01;3.33;;;0.40;;
39020;SDS011;25188;51.958;5.842;2024-03-02T09:12:26;2.63;;;0.50;;
39020;SDS011;25188;51.958;5.842;2024-03-02T09:14:52;4.60;;;0.47;;
39020;SDS011;25188;51.958;5.842;2024-03-02T09:17:18;3.73;;;0.40;;
39020;SDS011;25188;51.958;5.842;2024-03-02T09:19:43;2.13;;;0.37;;
39020;SDS011;25188;51.958;5.842;2024-03-02T09:22:09;3.83;;;0.50;;
39020;SDS011;25188;51.958;5.842;2024-03-02T09:24:34;2.43;;;0.30;;
39020;SDS011;25188;51.958;5.842;2024-03-02T09:27:00;3.30;;;0.40;;
39020;SDS011;25188;51.958;5.842;2024-03-02T09:29:26;2.70;;;0.33;;
39020;SDS011;25188;51.958;5.842;2024-03-02T09:31:52;4.47;;;0.40;;
39020;SDS011;25188;51.958;5.842;2024-03-02T09:34:17;4.40;;;0.60;;
39020;SDS011;25188;51.958;5.842;2024-03-02T09:36:43;6.13;;;0.40;;
39020;SDS011;25188;51.958;5.842;2024-03-02T09:39:09;7.17;;;0.70;;
39020;SDS011;25188;51.958;5.842;2024-03-02T09:41:38;4.73;;;0.53;;
39020;SDS011;25188;51.958;5.842;2024-03-02T09:44:07;4.97;;;0.43;;
39020;SDS011;25188;51.958;5.842;2024-03-02T09:46:33;4.57;;;0.50;;
39020;SDS011;25188;51.958;5.842;2024-03-02T09:49:00;2.70;;;0.50;;
39020;SDS011;25188;51.958;5.842;2024-03-02T09:51:26;4.30;;;0.83;;
39020;SDS011;25188;51.958;5.842;2024-03-02T09:53:51;2.83;;;0.60;;
39020;SDS011;25188;51.958;5.842;2024-03-02T09:56:19;4.78;;;0.60;;
39020;SDS011;25188;51.958;5.842;2024-03-02T09:58:45;4.23;;;0.50;;
39020;SDS011;25188;51.958;5.842;2024-03-02T10:01:11;4.10;;;0.60;;
39020;SDS011;25188;51.958;5.842;2024-03-02T10:03:37;2.23;;;0.43;;
39020;SDS011;25188;51.958;5.842;2024-03-02T10:06:22;2.92;;;0.52;;
39020;SDS011;25188;51.958;5.842;2024-03-02T10:08:49;1.98;;;0.40;;
39020;SDS011;25188;51.958;5.842;2024-03-02T10:11:32;3.67;;;0.50;;
39020;SDS011;25188;51.958;5.842;2024-03-02T10:14:07;5.30;;;0.63;;
39020;SDS011;25188;51.958;5.842;2024-03-02T10:16:35;2.03;;;0.40;;
39020;SDS011;25188;51.958;5.842;2024-03-02T10:19:23;3.45;;;0.30;;
39020;SDS011;25188;51.958;5.842;2024-03-02T10:24:16;3.33;;;0.20;;
39020;SDS011;25188;51.958;5.842;2024-03-02T10:26:42;2.97;;;0.50;;
39020;SDS011;25188;51.958;5.842;2024-03-02T10:29:11;4.97;;;0.65;;
39020;SDS011;25188;51.958;5.842;2024-03-02T10:31:38;1.40;;;0.32;;
39020;SDS011;25188;51.958;5.842;2024-03-02T10:34:05;4.57;;;0.40;;
39020;SDS011;25188;51.958;5.842;2024-03-02T10:36:32;2.80;;;0.45;;
39020;SDS011;25188;51.958;5.842;2024-03-02T10:39:01;2.78;;;0.35;;
39020;SDS011;25188;51.958;5.842;2024-03-02T10:41:28;2.70;;;0.30;;
39020;SDS011;25188;51.958;5.842;2024-03-02T10:44:05;1.55;;;0.30;;
39020;SDS011;25188;51.958;5.842;2024-03-02T10:46:33;1.92;;;0.30;;
39020;SDS011;25188;51.958;5.842;2024-03-02T10:49:00;1.83;;;0.25;;
39020;SDS011;25188;51.958;5.842;2024-03-02T10:51:27;1.90;;;0.35;;
39020;SDS011;25188;51.958;5.842;2024-03-02T10:53:56;1.67;;;0.30;;
39020;SDS011;25188;51.958;5.842;2024-03-02T10:56:33;2.80;;;0.43;;
39020;SDS011;25188;51.958;5.842;2024-03-02T10:59:12;2.92;;;0.40;;
39020;SDS011;25188;51.958;5.842;2024-03-02T11:02:01;1.65;;;0.40;;
39020;SDS011;25188;51.958;5.842;2024-03-02T11:04:29;1.50;;;0.20;;
39020;SDS011;25188;51.958;5.842;2024-03-02T11:07:02;2.20;;;0.30;;
39020;SDS011;25188;51.958;5.842;2024-03-02T11:09:33;1.35;;;0.30;;
39020;SDS011;25188;51.958;5.842;2024-03-02T11:14:32;1.13;;;0.30;;
39020;SDS011;25188;51.958;5.842;2024-03-02T11:17:00;1.05;;;0.30;;
39020;SDS011;25188;51.958;5.842;2024-03-02T11:19:27;2.03;;;0.30;;
39020;SDS011;25188;51.958;5.842;2024-03-02T11:21:53;1.45;;;0.30;;
39020;SDS011;25188;51.958;5.842;2024-03-02T11:27:03;1.63;;;0.30;;
39020;SDS011;25188;51.958;5.842;2024-03-02T11:32:19;3.22;;;0.20;;
39020;SDS011;25188;51.958;5.842;2024-03-02T11:34:47;2.70;;;0.40;;
39020;SDS011;25188;51.958;5.842;2024-03-02T11:37:15;1.10;;;0.30;;
39020;SDS011;25188;51.958;5.842;2024-03-02T11:39:42;1.23;;;0.28;;
39020;SDS011;25188;51.958;5.842;2024-03-02T11:42:09;3.53;;;0.30;;
39020;SDS011;25188;51.958;5.842;2024-03-02T11:44:39;2.58;;;0.38;;
39020;SDS011;25188;51.958;5.842;2024-03-02T11:47:15;1.98;;;0.35;;
39020;SDS011;25188;51.958;5.842;2024-03-02T11:49:49;1.70;;;0.30;;
39020;SDS011;25188;51.958;5.842;2024-03-02T11:52:19;0.90;;;0.30;;
39020;SDS011;25188;51.958;5.842;2024-03-02T11:54:47;0.98;;;0.30;;
39020;SDS011;25188;51.958;5.842;2024-03-02T11:57:20;2.58;;;0.40;;
39020;SDS011;25188;51.958;5.842;2024-03-02T11:59:51;6.38;;;0.50;;
39020;SDS011;25188;51.958;5.842;2024-03-02T12:02:18;5.68;;;0.50;;
39020;SDS011;25188;51.958;5.842;2024-03-02T12:04:45;5.40;;;0.50;;
39020;SDS011;25188;51.958;5.842;2024-03-02T12:07:18;1.17;;;0.32;;
39020;SDS011;25188;51.958;5.842;2024-03-02T12:09:48;1.02;;;0.20;;
39020;SDS011;25188;51.958;5.842;2024-03-02T12:12:15;1.90;;;0.35;;
39020;SDS011;25188;51.958;5.842;2024-03-02T12:14:49;1.48;;;0.30;;
39020;SDS011;25188;51.958;5.842;2024-03-02T12:17:16;1.00;;;0.30;;
39020;SDS011;25188;51.958;5.842;2024-03-02T12:19:42;2.90;;;0.45;;
39020;SDS011;25188;51.958;5.842;2024-03-02T12:22:08;1.55;;;0.30;;
39020;SDS011;25188;51.958;5.842;2024-03-02T12:24:33;1.98;;;0.40;;
39020;SDS011;25188;51.958;5.842;2024-03-02T12:26:59;1.50;;;0.40;;
39020;SDS011;25188;51.958;5.842;2024-03-02T12:29:28;1.25;;;0.20;;
39020;SDS011;25188;51.958;5.842;2024-03-02T12:31:54;1.67;;;0.30;;
39020;SDS011;25188;51.958;5.842;2024-03-02T12:34:21;1.38;;;0.30;;
39020;SDS011;25188;51.958;5.842;2024-03-02T12:36:47;2.03;;;0.30;;
39020;SDS011;25188;51.958;5.842;2024-03-02T12:39:17;2.05;;;0.38;;
39020;SDS011;25188;51.958;5.842;2024-03-02T12:41:44;1.45;;;0.30;;
39020;SDS011;25188;51.958;5.842;2024-03-02T12:44:15;2.50;;;0.47;;
39020;SDS011;25188;51.958;5.842;2024-03-02T12:46:41;2.60;;;0.40;;
39020;SDS011;25188;51.958;5.842;2024-03-02T12:49:11;3.80;;;0.28;;
39020;SDS011;25188;51.958;5.842;2024-03-02T12:51:39;1.85;;;0.22;;
39020;SDS011;25188;51.958;5.842;2024-03-02T12:54:09;1.83;;;0.50;;
39020;SDS011;25188;51.958;5.842;2024-03-02T12:56:40;3.10;;;0.50;;
39020;SDS011;25188;51.958;5.842;2024-03-02T12:59:16;1.92;;;0.40;;
39020;SDS011;25188;51.958;5.842;2024-03-02T13:01:54;1.73;;;0.30;;
39020;SDS011;25188;51.958;5.842;2024-03-02T13:04:24;1.48;;;0.30;;
39020;SDS011;25188;51.958;5.842;2024-03-02T13:06:51;2.15;;;0.32;;
39020;SDS011;25188;51.958;5.842;2024-03-02T13:09:17;1.45;;;0.30;;
39020;SDS011;25188;51.958;5.842;2024-03-02T13:11:43;2.47;;;0.40;;
39020;SDS011;25188;51.958;5.842;2024-03-02T13:14:10;2.63;;;0.50;;
39020;SDS011;25188;51.958;5.842;2024-03-02T13:16:39;1.25;;;0.40;;
39020;SDS011;25188;51.958;5.842;2024-03-02T13:19:09;2.08;;;0.40;;
39020;SDS011;25188;51.958;5.842;2024-03-02T13:21:38;3.47;;;0.40;;
39020;SDS011;25188;51.958;5.842;2024-03-02T13:24:04;2.00;;;0.40;;
39020;SDS011;25188;51.958;5.842;2024-03-02T13:26:30;1.20;;;0.40;;
39020;SDS011;25188;51.958;5.842;2024-03-02T13:28:56;2.28;;;0.50;;
39020;SDS011;25188;51.958;5.842;2024-03-02T13:31:22;1.42;;;0.40;;
39020;SDS011;25188;51.958;5.842;2024-03-02T13:33:48;1.52;;;0.30;;
39020;SDS011;25188;51.958;5.842;2024-03-02T13:36:15;2.10;;;0.32;;
39020;SDS011;25188;51.958;5.842;2024-03-02T13:38:40;3.53;;;0.40;;
39020;SDS011;25188;51.958;5.842;2024-03-02T13:41:09;2.50;;;0.50;;
39020;SDS011;25188;51.958;5.842;2024-03-02T13:43:36;2.60;;;0.40;;
39020;SDS011;25188;51.958;5.842;2024-03-02T13:46:04;2.58;;;0.50;;
39020;SDS011;25188;51.958;5.842;2024-03-02T13:48:30;1.77;;;0.38;;
39020;SDS011;25188;51.958;5.842;2024-03-02T13:50:56;1.63;;;0.40;;
39020;SDS011;25188;51.958;5.842;2024-03-02T13:53:22;2.88;;;0.47;;
39020;SDS011;25188;51.958;5.842;2024-03-02T13:55:48;1.63;;;0.30;;
39020;SDS011;25188;51.958;5.842;2024-03-02T13:58:15;1.63;;;0.40;;
39020;SDS011;25188;51.958;5.842;2024-03-02T14:00:42;2.20;;;0.40;;
39020;SDS011;25188;51.958;5.842;2024-03-02T14:03:12;1.08;;;0.25;;
39020;SDS011;25188;51.958;5.842;2024-03-02T14:05:38;2.55;;;0.35;;
39020;SDS011;25188;51.958;5.842;2024-03-02T14:08:04;2.80;;;0.30;;
39020;SDS011;25188;51.958;5.842;2024-03-02T14:10:30;2.53;;;0.32;;
39020;SDS011;25188;51.958;5.842;2024-03-02T14:12:56;3.33;;;0.40;;
39020;SDS011;25188;51.958;5.842;2024-03-02T14:15:22;2.60;;;0.50;;
39020;SDS011;25188;51.958;5.842;2024-03-02T14:17:49;1.73;;;0.30;;
39020;SDS011;25188;51.958;5.842;2024-03-02T14:20:15;2.70;;;0.52;;
39020;SDS011;25188;51.958;5.842;2024-03-02T14:22:46;2.17;;;0.40;;
39020;SDS011;25188;51.958;5.842;2024-03-02T14:25:13;5.20;;;0.50;;
39020;SDS011;25188;51.958;5.842;2024-03-02T14:27:38;2.28;;;0.40;;
39020;SDS011;25188;51.958;5.842;2024-03-02T14:30:05;3.28;;;0.55;;
39020;SDS011;25188;51.958;5.842;2024-03-02T14:32:31;2.97;;;0.38;;
39020;SDS011;25188;51.958;5.842;2024-03-02T14:34:57;2.97;;;0.40;;
39020;SDS011;25188;51.958;5.842;2024-03-02T14:37:23;2.33;;;0.40;;
39020;SDS011;25188;51.958;5.842;2024-03-02T14:39:49;1.77;;;0.40;;
39020;SDS011;25188;51.958;5.842;2024-03-02T14:42:15;1.63;;;0.50;;
39020;SDS011;25188;51.958;5.842;2024-03-02T14:44:41;1.23;;;0.30;;
39020;SDS011;25188;51.958;5.842;2024-03-02T14:47:07;2.72;;;0.40;;
39020;SDS011;25188;51.958;5.842;2024-03-02T14:49:33;3.05;;;0.43;;
39020;SDS011;25188;51.958;5.842;2024-03-02T14:52:01;2.00;;;0.40;;
39020;SDS011;25188;51.958;5.842;2024-03-02T14:54:27;3.15;;;0.55;;
39020;SDS011;25188;51.958;5.842;2024-03-02T14:56:54;1.63;;;0.40;;